createdAt,value
2023-02-19T00:02:08.051Z,9.70
2023-02-19T00:04:34.792Z,9.60
2023-02-19T00:07:01.607Z,9.60
2023-02-19T00:09:28.464Z,9.60
2023-02-19T00:11:55.192Z,9.60
2023-02-19T00:14:21.966Z,9.70
2023-02-19T00:16:49.553Z,9.50
2023-02-19T00:19:20.336Z,9.60
2023-02-19T00:21:48.024Z,9.60
2023-02-19T00:24:15.577Z,9.60
2023-02-19T00:26:44.194Z,9.60
2023-02-19T00:29:21.280Z,9.50
2023-02-19T00:31:48.729Z,9.50
2023-02-19T00:34:15.832Z,9.50
2023-02-19T00:36:44.288Z,9.50
2023-02-19T00:39:15.991Z,9.50
2023-02-19T00:41:43.508Z,9.50
2023-02-19T00:44:12.224Z,7.40
2023-02-19T00:46:46.074Z,9.60
2023-02-19T00:49:23.825Z,9.60
2023-02-19T00:51:52.632Z,9.60
2023-02-19T00:54:20.478Z,9.60
2023-02-19T00:56:47.441Z,9.70
2023-02-19T01:01:42.601Z,9.60
2023-02-19T01:04:09.397Z,9.60
2023-02-19T01:06:36.689Z,9.60
2023-02-19T01:09:05.528Z,9.60
2023-02-19T01:11:32.301Z,9.60
2023-02-19T01:14:01.043Z,9.90
2023-02-19T01:16:28.198Z,9.50
2023-02-19T01:21:25.868Z,9.70
2023-02-19T01:23:53.733Z,9.70
2023-02-19T01:26:25.308Z,9.70
2023-02-19T01:28:52.819Z,9.80
2023-02-19T01:31:24.119Z,9.70
2023-02-19T01:33:55.575Z,9.70
2023-02-19T01:36:22.906Z,9.80
2023-02-19T01:38:49.930Z,9.80
2023-02-19T01:41:22.809Z,9.80
2023-02-19T01:44:25.290Z,9.70
2023-02-19T01:46:53.202Z,9.70
2023-02-19T01:49:48.973Z,9.60
2023-02-19T01:52:26.740Z,9.60
2023-02-19T01:57:27.812Z,9.50
2023-02-19T02:00:01.707Z,9.40
2023-02-19T02:02:28.589Z,9.40
2023-02-19T02:04:58.297Z,9.30
2023-02-19T02:07:44.747Z,9.30
2023-02-19T02:12:58.841Z,9.20
2023-02-19T02:15:44.711Z,9.20
2023-02-19T02:18:30.915Z,9.20
2023-02-19T02:21:44.511Z,9.20
2023-02-19T02:25:00.933Z,9.10
2023-02-19T02:28:04.027Z,9.10
2023-02-19T02:30:47.046Z,9.00
2023-02-19T02:33:37.451Z,9.00
2023-02-19T02:36:16.640Z,9.00
2023-02-19T02:38:46.580Z,9.00
2023-02-19T02:41:15.819Z,8.90
2023-02-19T02:43:43.732Z,8.90
2023-02-19T02:46:20.072Z,8.90
2023-02-19T02:48:55.399Z,8.80
2023-02-19T02:51:33.932Z,8.80
2023-02-19T02:54:29.587Z,8.80
2023-02-19T02:56:58.787Z,8.70
2023-02-19T02:59:31.365Z,8.70
2023-02-19T03:02:14.472Z,8.70
2023-02-19T03:05:32.491Z,8.60
2023-02-19T03:08:36.607Z,8.60
2023-02-19T03:11:29.770Z,8.60
2023-02-19T03:14:29.670Z,8.60
2023-02-19T03:17:31.923Z,8.50
2023-02-19T03:20:03.523Z,8.50
2023-02-19T03:22:36.271Z,8.60
2023-02-19T03:25:40.706Z,8.50
2023-02-19T03:28:12.523Z,8.50
2023-02-19T03:30:47.145Z,8.40
2023-02-19T03:33:23.969Z,8.30
2023-02-19T03:36:00.720Z,8.20
2023-02-19T03:38:40.719Z,8.20
2023-02-19T03:41:25.826Z,8.10
2023-02-19T03:44:03.061Z,8.00
2023-02-19T03:46:45.605Z,8.00
2023-02-19T03:49:47.919Z,7.90
2023-02-19T03:52:21.670Z,7.80
2023-02-19T03:54:58.779Z,7.70
2023-02-19T03:57:43.014Z,7.60
2023-02-19T04:00:33.405Z,7.60
2023-02-19T04:03:32.250Z,7.50
2023-02-19T04:06:26.090Z,7.40
2023-02-19T04:08:58.701Z,7.30
2023-02-19T04:11:28.874Z,7.20
2023-02-19T04:14:06.508Z,7.20
2023-02-19T04:16:37.658Z,7.20
2023-02-19T04:19:19.339Z,7.20
2023-02-19T04:21:49.576Z,7.10
2023-02-19T04:24:51.970Z,7.10
2023-02-19T04:29:46.618Z,7.10
2023-02-19T04:32:14.178Z,7.00
2023-02-19T04:34:41.103Z,7.00
2023-02-19T04:37:08.248Z,6.90
2023-02-19T04:39:35.322Z,6.90
2023-02-19T04:42:02.227Z,6.70
2023-02-19T04:44:29.026Z,6.80
2023-02-19T04:46:55.968Z,6.80
2023-02-19T04:49:23.289Z,6.80
2023-02-19T04:51:50.291Z,6.70
2023-02-19T04:54:17.000Z,6.70
2023-02-19T04:56:43.750Z,6.70
2023-02-19T04:59:10.648Z,6.70
2023-02-19T05:04:05.309Z,6.60
2023-02-19T05:06:32.101Z,6.60
2023-02-19T05:08:59.056Z,6.60
2023-02-19T05:11:25.823Z,6.60
2023-02-19T05:13:52.588Z,6.60
2023-02-19T05:16:19.312Z,6.60
2023-02-19T05:18:47.274Z,6.50
2023-02-19T05:21:15.215Z,6.60
2023-02-19T05:23:42.449Z,6.60
2023-02-19T05:26:17.978Z,6.50
2023-02-19T05:28:47.160Z,6.60
2023-02-19T05:31:14.659Z,6.50
2023-02-19T05:33:43.040Z,6.50
2023-02-19T05:36:13.589Z,6.60
2023-02-19T05:38:41.841Z,6.50
2023-02-19T05:41:18.256Z,6.60
2023-02-19T05:43:48.168Z,6.60
2023-02-19T05:46:19.768Z,6.60
2023-02-19T05:48:48.554Z,6.70
2023-02-19T05:51:19.190Z,6.70
2023-02-19T05:53:47.697Z,6.70
2023-02-19T05:56:26.271Z,6.70
2023-02-19T05:58:55.773Z,6.70
2023-02-19T06:01:27.476Z,6.70
2023-02-19T06:03:57.383Z,6.60
2023-02-19T06:06:25.240Z,6.70
2023-02-19T06:08:52.194Z,6.70
2023-02-19T06:11:19.278Z,6.70
2023-02-19T06:13:46.744Z,6.70
2023-02-19T06:16:13.671Z,6.80
2023-02-19T06:18:41.231Z,6.80
2023-02-19T06:21:11.999Z,6.80
2023-02-19T06:23:39.887Z,6.80
2023-02-19T06:26:22.584Z,6.80
2023-02-19T06:28:51.593Z,6.80
2023-02-19T06:31:20.663Z,6.80
2023-02-19T06:33:47.974Z,6.80
2023-02-19T06:36:18.423Z,6.90
2023-02-19T06:38:45.496Z,6.80
2023-02-19T06:41:13.516Z,6.90
2023-02-19T06:43:40.955Z,6.90
2023-02-19T06:46:08.892Z,6.90
2023-02-19T06:48:35.912Z,7.00
2023-02-19T06:51:03.352Z,7.00
2023-02-19T06:53:30.302Z,6.90
2023-02-19T06:55:59.820Z,7.00
2023-02-19T06:58:27.492Z,7.00
2023-02-19T07:00:55.079Z,7.10
2023-02-19T07:03:22.206Z,7.10
2023-02-19T07:05:49.263Z,7.10
2023-02-19T07:08:17.351Z,7.10
2023-02-19T07:10:45.508Z,7.10
2023-02-19T07:13:12.476Z,7.10
2023-02-19T07:15:39.229Z,7.20
2023-02-19T07:18:10.192Z,7.10
2023-02-19T07:20:37.164Z,7.20
2023-02-19T07:23:04.020Z,7.20
2023-02-19T07:25:30.829Z,7.20
2023-02-19T07:27:57.560Z,7.20
2023-02-19T07:30:24.397Z,7.20
2023-02-19T07:32:51.166Z,7.20
2023-02-19T07:35:17.877Z,7.20
2023-02-19T07:37:44.775Z,7.30
2023-02-19T07:40:11.616Z,7.10
2023-02-19T07:45:05.802Z,7.60
2023-02-19T07:47:32.545Z,7.30
2023-02-19T07:49:59.395Z,7.30
2023-02-19T07:52:26.135Z,7.40
2023-02-19T07:54:52.906Z,7.40
2023-02-19T07:57:19.716Z,7.40
2023-02-19T07:59:46.430Z,7.40
2023-02-19T08:02:37.346Z,7.40
2023-02-19T08:05:06.669Z,7.40
2023-02-19T08:07:35.165Z,7.50
2023-02-19T08:10:22.367Z,7.40
2023-02-19T08:13:18.619Z,7.50
2023-02-19T08:16:18.268Z,7.50
2023-02-19T08:18:49.206Z,7.50
2023-02-19T08:21:18.227Z,7.50
2023-02-19T08:23:46.261Z,7.40
2023-02-19T08:26:13.336Z,7.40
2023-02-19T08:28:40.551Z,7.40
2023-02-19T08:31:10.844Z,7.30
2023-02-19T08:33:39.286Z,7.40
2023-02-19T08:36:09.118Z,7.40
2023-02-19T08:38:36.808Z,7.40
2023-02-19T08:41:09.136Z,7.40
2023-02-19T08:43:36.626Z,7.40
2023-02-19T08:46:04.583Z,7.30
2023-02-19T08:48:31.319Z,7.30
2023-02-19T08:51:04.329Z,7.30
2023-02-19T08:53:32.962Z,7.30
2023-02-19T08:56:08.145Z,7.10
2023-02-19T08:58:36.073Z,7.30
2023-02-19T09:01:03.918Z,7.40
2023-02-19T09:03:30.736Z,7.40
2023-02-19T09:05:57.525Z,7.50
2023-02-19T09:11:03.580Z,7.60
2023-02-19T09:13:30.781Z,7.60
2023-02-19T09:15:57.641Z,8.10
2023-02-19T09:18:25.976Z,7.70
2023-02-19T09:23:19.923Z,7.80
2023-02-19T09:25:46.862Z,7.90
2023-02-19T09:28:13.651Z,8.00
2023-02-19T09:30:40.433Z,8.00
2023-02-19T09:33:07.228Z,8.00
2023-02-19T09:38:02.087Z,8.20
2023-02-19T09:40:30.655Z,8.20
2023-02-19T09:42:58.264Z,8.30
2023-02-19T09:45:26.744Z,8.40
2023-02-19T09:47:58.428Z,8.40
2023-02-19T09:50:44.735Z,8.40
2023-02-19T09:53:21.996Z,8.40
2023-02-19T09:55:49.303Z,8.50
2023-02-19T09:58:35.496Z,8.50
2023-02-19T10:01:05.805Z,8.50
2023-02-19T10:03:39.249Z,8.50
2023-02-19T10:06:29.715Z,8.60
2023-02-19T10:09:13.460Z,8.60
2023-02-19T10:11:41.906Z,8.60
2023-02-19T10:14:19.148Z,8.60
2023-02-19T10:16:49.062Z,8.60
2023-02-19T10:19:17.002Z,8.70
2023-02-19T10:21:44.471Z,8.80
2023-02-19T10:24:21.591Z,8.80
2023-02-19T10:26:50.091Z,8.70
2023-02-19T10:29:16.822Z,8.80
2023-02-19T10:31:43.664Z,8.90
2023-02-19T10:34:22.214Z,9.00
2023-02-19T10:36:52.180Z,8.90
2023-02-19T10:39:21.795Z,8.10
2023-02-19T10:41:54.462Z,9.00
2023-02-19T10:44:28.860Z,9.00
2023-02-19T10:47:00.417Z,9.00
2023-02-19T10:49:37.656Z,9.00
2023-02-19T10:52:28.246Z,9.10
2023-02-19T10:55:20.754Z,9.10
2023-02-19T10:57:47.593Z,9.20
2023-02-19T11:00:22.827Z,9.40
2023-02-19T11:02:49.740Z,9.30
2023-02-19T11:05:23.255Z,9.30
2023-02-19T11:07:53.671Z,9.30
2023-02-19T11:10:40.570Z,9.30
2023-02-19T11:13:16.233Z,9.30
2023-02-19T11:15:43.759Z,9.30
2023-02-19T11:18:13.161Z,9.20
2023-02-19T11:20:54.314Z,9.30
2023-02-19T11:23:30.527Z,9.10
2023-02-19T11:26:03.387Z,9.20
2023-02-19T11:28:40.812Z,9.20
2023-02-19T11:31:22.871Z,9.20
2023-02-19T11:34:13.423Z,9.20
2023-02-19T11:36:42.157Z,9.20
2023-02-19T11:39:17.475Z,9.10
2023-02-19T11:42:29.607Z,9.20
2023-02-19T11:45:36.862Z,9.20
2023-02-19T11:48:25.840Z,9.30
2023-02-19T11:51:39.450Z,9.30
2023-02-19T11:54:16.610Z,9.30
2023-02-19T11:56:45.062Z,9.40
2023-02-19T11:59:31.351Z,9.40
2023-02-19T12:02:34.179Z,9.50
2023-02-19T12:05:34.785Z,9.60
2023-02-19T12:08:13.272Z,9.60
2023-02-19T12:11:05.790Z,9.70
2023-02-19T12:14:11.869Z,9.70
2023-02-19T12:17:10.431Z,9.70
2023-02-19T12:20:14.703Z,9.70
2023-02-19T12:23:09.975Z,9.80
2023-02-19T12:25:55.766Z,9.80
2023-02-19T12:28:47.751Z,9.90
2023-02-19T12:31:46.511Z,10.00
2023-02-19T12:34:45.264Z,10.00
2023-02-19T12:37:52.873Z,10.00
2023-02-19T12:40:43.660Z,10.00
2023-02-19T12:43:18.664Z,10.10
2023-02-19T12:46:08.642Z,10.20
2023-02-19T12:48:58.868Z,10.20
2023-02-19T12:51:37.034Z,10.20
2023-02-19T12:54:39.211Z,10.20
2023-02-19T12:57:38.884Z,10.30
2023-02-19T13:00:35.454Z,10.30
2023-02-19T13:03:50.130Z,10.30
2023-02-19T13:06:33.191Z,10.20
2023-02-19T13:09:07.779Z,10.30
2023-02-19T13:12:01.574Z,10.20
2023-02-19T13:14:42.569Z,10.30
2023-02-19T13:17:28.529Z,10.20
2023-02-19T13:20:13.416Z,10.20
2023-02-19T13:23:14.464Z,10.20
2023-02-19T13:26:19.017Z,10.10
2023-02-19T13:29:10.250Z,10.20
2023-02-19T13:32:24.393Z,10.20
2023-02-19T13:35:23.227Z,10.10
2023-02-19T13:37:51.402Z,10.10
2023-02-19T13:40:34.989Z,10.10
2023-02-19T13:43:07.363Z,10.00
2023-02-19T13:45:45.851Z,10.00
2023-02-19T13:48:33.293Z,10.70
2023-02-19T13:51:18.810Z,11.60
2023-02-19T13:53:45.632Z,9.80
2023-02-19T13:56:31.224Z,10.80
2023-02-19T13:59:36.425Z,9.80
2023-02-19T14:02:03.058Z,9.80
2023-02-19T14:05:11.491Z,9.70
2023-02-19T14:08:35.354Z,9.80
2023-02-19T14:11:02.511Z,9.80
2023-02-19T14:13:54.532Z,9.80
2023-02-19T14:16:52.636Z,9.80
2023-02-19T14:20:00.941Z,9.70
2023-02-19T14:22:50.106Z,9.70
2023-02-19T14:25:31.782Z,9.70
2023-02-19T14:28:21.172Z,9.70
2023-02-19T14:30:57.185Z,9.70
2023-02-19T14:33:34.072Z,9.70
2023-02-19T14:36:13.344Z,9.80
2023-02-19T14:38:48.702Z,9.80
2023-02-19T14:41:17.636Z,9.80
2023-02-19T14:43:48.762Z,9.80
2023-02-19T14:46:31.138Z,9.80
2023-02-19T14:49:19.737Z,9.80
2023-02-19T14:51:53.105Z,9.80
2023-02-19T14:54:37.290Z,9.80
2023-02-19T14:57:06.689Z,9.80
2023-02-19T14:59:33.395Z,9.80
2023-02-19T15:02:13.074Z,9.80
2023-02-19T15:04:40.281Z,9.80
2023-02-19T15:07:14.034Z,9.80
2023-02-19T15:09:47.322Z,9.80
2023-02-19T15:12:28.754Z,9.80
2023-02-19T15:15:01.359Z,9.80
2023-02-19T15:17:35.731Z,9.70
2023-02-19T15:20:10.927Z,9.70
2023-02-19T15:22:41.553Z,9.70
2023-02-19T15:25:16.650Z,9.70
2023-02-19T15:27:43.788Z,9.60
2023-02-19T15:30:31.290Z,9.60
2023-02-19T15:33:00.245Z,9.60
2023-02-19T15:35:29.930Z,9.50
2023-02-19T15:37:57.066Z,9.50
2023-02-19T15:40:31.489Z,9.50
2023-02-19T15:43:00.281Z,9.40
2023-02-19T15:45:37.633Z,9.40
2023-02-19T15:48:19.727Z,9.40
2023-02-19T15:53:52.163Z,9.30
2023-02-19T15:56:30.474Z,9.20
2023-02-19T15:59:13.325Z,9.20
2023-02-19T16:01:40.769Z,9.20
2023-02-19T16:04:15.695Z,9.20
2023-02-19T16:07:01.949Z,9.10
2023-02-19T16:09:40.865Z,9.10
2023-02-19T16:12:24.869Z,9.10
2023-02-19T16:14:51.847Z,9.00
2023-02-19T16:17:23.155Z,9.00
2023-02-19T16:19:56.835Z,9.00
2023-02-19T16:22:28.978Z,9.00
2023-02-19T16:25:01.909Z,9.00
2023-02-19T16:27:42.489Z,8.90
2023-02-19T16:30:17.043Z,8.90
2023-02-19T16:32:46.780Z,8.90
2023-02-19T16:35:52.164Z,8.90
2023-02-19T16:38:20.939Z,8.80
2023-02-19T16:40:50.874Z,8.80
2023-02-19T16:43:40.951Z,8.80
2023-02-19T16:46:12.852Z,8.80
2023-02-19T16:48:39.718Z,8.80
2023-02-19T16:51:08.666Z,8.80
2023-02-19T16:53:35.746Z,8.70
2023-02-19T16:56:02.664Z,8.70
2023-02-19T16:58:29.451Z,8.60
2023-02-19T17:00:56.490Z,8.70
2023-02-19T17:03:25.529Z,8.60
2023-02-19T17:05:52.792Z,8.60
2023-02-19T17:08:37.058Z,8.60
2023-02-19T17:11:07.090Z,8.60
2023-02-19T17:13:33.867Z,8.60
2023-02-19T17:16:00.735Z,8.60
2023-02-19T17:18:27.993Z,8.60
2023-02-19T17:21:29.504Z,8.50
2023-02-19T17:23:59.211Z,8.50
2023-02-19T17:26:29.857Z,8.50
2023-02-19T17:28:58.505Z,8.50
2023-02-19T17:31:26.133Z,8.50
2023-02-19T17:33:53.106Z,8.40
2023-02-19T17:36:30.735Z,8.50
2023-02-19T17:39:03.172Z,8.40
2023-02-19T17:41:29.962Z,8.40
2023-02-19T17:43:56.739Z,8.40
2023-02-19T17:46:26.436Z,8.40
2023-02-19T17:48:54.430Z,8.40
2023-02-19T17:51:22.105Z,8.30
2023-02-19T17:53:48.963Z,8.40
2023-02-19T17:56:27.994Z,8.40
2023-02-19T17:58:56.927Z,8.40
2023-02-19T18:01:24.076Z,8.40
2023-02-19T18:03:51.299Z,8.40
2023-02-19T18:06:18.430Z,8.40
2023-02-19T18:08:50.941Z,8.30
2023-02-19T18:11:18.075Z,8.40
2023-02-19T18:16:12.306Z,8.40
2023-02-19T18:18:40.356Z,8.30
2023-02-19T18:21:10.870Z,8.40
2023-02-19T18:23:38.801Z,8.50
2023-02-19T18:26:12.697Z,8.40
2023-02-19T18:28:39.924Z,8.40
2023-02-19T18:31:07.229Z,8.40
2023-02-19T18:33:35.031Z,8.40
2023-02-19T18:36:01.949Z,8.40
2023-02-19T18:38:28.756Z,8.40
2023-02-19T18:40:58.395Z,8.30
2023-02-19T18:43:25.782Z,8.30
2023-02-19T18:45:52.610Z,8.40
2023-02-19T18:48:19.383Z,8.40
2023-02-19T18:53:14.032Z,8.30
2023-02-19T18:55:40.756Z,8.40
2023-02-19T18:58:07.465Z,8.40
2023-02-19T19:00:34.196Z,8.20
2023-02-19T19:03:00.937Z,8.40
2023-02-19T19:05:27.830Z,8.40
2023-02-19T19:07:59.271Z,8.40
2023-02-19T19:10:26.589Z,8.40
2023-02-19T19:12:54.254Z,8.40
2023-02-19T19:15:22.385Z,8.40
2023-02-19T19:17:49.797Z,8.40
2023-02-19T19:20:22.233Z,8.30
2023-02-19T19:22:51.447Z,8.30
2023-02-19T19:25:19.930Z,8.30
2023-02-19T19:27:46.776Z,8.30
2023-02-19T19:30:14.133Z,8.20
2023-02-19T19:32:40.858Z,8.20
2023-02-19T19:35:08.370Z,8.20
2023-02-19T19:37:35.244Z,8.20
2023-02-19T19:42:30.709Z,8.20
2023-02-19T19:44:57.480Z,8.10
2023-02-19T19:47:24.240Z,8.50
2023-02-19T19:49:50.988Z,8.10
2023-02-19T19:52:17.782Z,8.10
2023-02-19T19:54:44.922Z,8.10
2023-02-19T19:57:11.952Z,8.00
2023-02-19T19:59:39.542Z,8.10
2023-02-19T20:02:07.651Z,8.10
2023-02-19T20:04:34.480Z,8.10
2023-02-19T20:07:02.231Z,8.10
2023-02-19T20:09:29.381Z,8.10
2023-02-19T20:11:56.788Z,8.10
2023-02-19T20:14:25.324Z,8.10
2023-02-19T20:16:54.458Z,8.10
2023-02-19T20:19:21.657Z,8.10
2023-02-19T20:21:53.744Z,8.10
2023-02-19T20:24:25.910Z,8.10
2023-02-19T20:27:02.661Z,8.00
2023-02-19T20:29:33.140Z,8.00
2023-02-19T20:32:02.462Z,8.00
2023-02-19T20:34:29.999Z,8.00
2023-02-19T20:36:56.898Z,8.00
2023-02-19T20:39:28.646Z,7.90
2023-02-19T20:41:56.310Z,7.90
2023-02-19T20:44:23.110Z,7.90
2023-02-19T20:46:52.477Z,7.80
2023-02-19T20:49:22.646Z,7.80
2023-02-19T20:51:57.742Z,7.80
2023-02-19T20:54:31.049Z,7.80
2023-02-19T20:57:02.120Z,7.70
2023-02-19T20:59:34.913Z,7.70
2023-02-19T21:02:27.684Z,7.70
2023-02-19T21:07:26.800Z,7.70
2023-02-19T21:09:54.183Z,7.70
2023-02-19T21:12:22.589Z,7.70
2023-02-19T21:14:49.661Z,7.60
2023-02-19T21:17:16.631Z,7.60
2023-02-19T21:19:43.356Z,7.60
2023-02-19T21:22:10.126Z,7.60
2023-02-19T21:24:36.864Z,7.60
2023-02-19T21:27:03.964Z,7.30
2023-02-19T21:29:30.706Z,7.60
2023-02-19T21:31:58.081Z,7.50
2023-02-19T21:34:29.743Z,7.60
2023-02-19T21:36:57.438Z,7.50
2023-02-19T21:39:25.666Z,7.50
2023-02-19T21:41:52.458Z,7.40
2023-02-19T21:44:21.124Z,7.60
2023-02-19T21:46:48.259Z,7.50
2023-02-19T21:49:15.066Z,7.50
2023-02-19T21:51:43.967Z,7.50
2023-02-19T21:54:19.142Z,7.50
2023-02-19T21:56:45.923Z,7.50
2023-02-19T21:59:13.359Z,7.40
2023-02-19T22:01:40.387Z,7.50
2023-02-19T22:04:08.985Z,7.50
2023-02-19T22:06:36.038Z,7.50
2023-02-19T22:09:03.804Z,7.40
2023-02-19T22:11:30.580Z,7.60
2023-02-19T22:13:57.544Z,7.50
2023-02-19T22:16:24.397Z,7.60
2023-02-19T22:18:57.796Z,7.60
2023-02-19T22:21:32.517Z,7.60
2023-02-19T22:24:01.360Z,7.50
2023-02-19T22:26:35.520Z,7.60
2023-02-19T22:29:07.092Z,7.60
2023-02-19T22:31:35.596Z,7.60
2023-02-19T22:34:03.458Z,7.60
2023-02-19T22:36:40.235Z,7.40
2023-02-19T22:39:15.302Z,7.50
2023-02-19T22:41:43.061Z,7.50
2023-02-19T22:44:11.137Z,7.40
2023-02-19T22:46:38.179Z,7.50
2023-02-19T22:49:06.409Z,7.40
2023-02-19T22:51:35.552Z,7.40
2023-02-19T22:54:02.488Z,7.40
2023-02-19T22:56:29.350Z,7.40
2023-02-19T22:58:58.942Z,7.30
2023-02-19T23:01:26.063Z,7.30
2023-02-19T23:03:57.068Z,7.30
2023-02-19T23:06:30.536Z,7.30
2023-02-19T23:09:02.922Z,7.20
2023-02-19T23:11:33.647Z,7.20
2023-02-19T23:16:29.172Z,7.20
2023-02-19T23:18:55.986Z,7.20
2023-02-19T23:21:23.430Z,7.20
2023-02-19T23:23:50.662Z,7.20
2023-02-19T23:26:17.554Z,7.20
2023-02-19T23:28:45.266Z,7.20
2023-02-19T23:31:13.347Z,7.10
2023-02-19T23:33:40.605Z,7.10
2023-02-19T23:36:08.591Z,7.20
2023-02-19T23:38:35.590Z,7.10
2023-02-19T23:41:03.006Z,7.10
2023-02-19T23:43:29.759Z,7.10
2023-02-19T23:45:57.004Z,7.00
2023-02-19T23:48:23.756Z,7.10
2023-02-19T23:50:50.491Z,7.10
2023-02-19T23:53:17.234Z,7.00
2023-02-19T23:55:44.016Z,7.00
2023-02-19T23:58:10.759Z,7.00
